Louis Armstrong New Orleans International Airport
KMSY : now visible

Airfield :











YOU CAN JOIN US ON...

 
LOGIN :

Register | Disclaimer

   EN    FR    IT 

 









Legend :    VFR   Marginal VFR   IFR   Intensive IFR   Very Intensive IFR
Visi :
Ceiling :
>= 8 km
>= 3000ft
5 to 8 km
1000 to 3000 ft
1500m to 5 km
500 to 1000 ft
800 to 1500m
200 to 500 ft
< 800m
< 200 ft
Symbols :   Thunderstorms  Fog  Heavy snow  Heavy precipitations  Wind > 20 kt






- Airport Elevation : 4 ft
- IATA code : MSY


KMSY - Louis Armstrong New Orleans International

CURRENT METAR :
  • 230853Z 00000KT 10SM FEW030 BKN220 26/25 A3002 RMK AO2 SLP170 60001 T02610250 56007

EXPIRED METARs :
  • 230753Z 00000KT 10SM FEW050 BKN210 26/24 A3002 RMK AO2 SLP170 T02560244
  • 230653Z 00000KT 10SM FEW030 SCT055 25/23 A3003 RMK AO2 RAE05 SLP172 P0001 T02500233
  • 230615Z VRB03KT 10SM SCT033 BKN045 BKN055 26/23 A3004 RMK AO2 RAE05 P0001 T02560228
  • 230553Z 33007KT 6SM -RA BR BKN017 OVC075 24/23 A3005 RMK AO2 RAB19 SLP177 P0055 60104 T02390228 10300 20239 403170228 53002
  • 230453Z 10004KT 10SM SCT032 SCT090 26/24 A3004 RMK AO2 RAE0355 TSE38 SLP176 P0000 T02560244
  • 230440Z 06004KT 10SM SCT032 SCT090 26/24 A3004 RMK AO2 RAE0355 TSE38 P0000 T02560239

TAF KMSY
Valid from the 23 at 06:00 until the 24 at 12:00 UTC


230521Z 2306/2412 35005KT P6SM VCTS BKN025CB BKN080
FM230900 VRB04KT P6SM SCT025 BKN150
FM231500 VRB04KT P6SM VCSH BKN020
FM231800 VRB04KT P6SM -SHRA VCTS SCT025CB BKN050
FM240100 VRB04KT P6SM SCT025 BKN060
KZHU FIR / North America



MET'MAP, your aeronautical weather chart ! - Copyright ORBIFLY December 2007 - Disclaimer

ORBIFLY MET'MAP TEAM :

Programming & Development : Alexandra Zaïnal
Original concept : Baudouin d'Aumeries
Technical & hardware support : Manuel Goepfert
Assistance : Marc-Olivier Méhu




SOURCES & CREDITS :

   NOAA       Earth
Advisory